Terminal Aerodrome Forecast
Issued by NWS

Home | Current Version | Previous Version | Text Only | Print | Product List | Glossary On
Versions: 1 2 3 4 5 6 7 8 9 10 11 12 13 14
000
FTUS44 KLIX 251725
TAFMSY
TAF
KMSY 251725Z 2518/2618 08006KT P6SM VCTS SCT030CB BKN060
      TEMPO 2519/2523 VRB30KT 2SM TSRA BKN030CB
     FM260000 14007KT P6SM SCT040 BKN200
     FM260600 12004KT P6SM SCT090 BKN250
     FM261500 13005KT P6SM SCT025 BKN090=

USA.gov is the U.S. government's official web portal to all federal, state and local government web resources and services.